EZY76FD EGCC-EGHQ
Flight info
| Callsign | EZY76FD |
|---|---|
| Flight time | 0h 44m |
| Altitude | 30000 |
| Route | ASMIM DCT NOKIN P17 ZESPE N92 EXMOR |
| Aircraft | A320/M-SDE2E3FGHIJ1RWXYZ/LB1 |
Departure
| Time | 2026-04-23 12:58 |
|---|---|
| Airport | Manchester Airport (EGCC) |
Arrival
| Time | 2026-04-23 13:43 |
|---|---|
| Airport | Cornwall Airport Newquay (EGHQ) |
| Time | Latitude | Longitude | Altitude | Speed | Heading |
|---|---|---|---|---|---|
| 2026-04-23 12:33 | 53.36792 | -2.28681 | 255 ft | 0 kts | 315° |
| 2026-04-23 12:44 | 53.36780 | -2.28661 | 255 ft | 4 kts | 317° |
| 2026-04-23 12:45 | 53.36763 | -2.28633 | 255 ft | 4 kts | 298° |
| 2026-04-23 12:45 | 53.36761 | -2.28603 | 255 ft | 4 kts | 219° |
| 2026-04-23 12:45 | 53.36783 | -2.28578 | 255 ft | 4 kts | 221° |
| 2026-04-23 12:45 | 53.36786 | -2.28573 | 255 ft | 0 kts | 225° |
| 2026-04-23 12:51 | 53.36773 | -2.28595 | 255 ft | 6 kts | 224° |
| 2026-04-23 12:51 | 53.36744 | -2.28644 | 255 ft | 6 kts | 225° |
| 2026-04-23 12:51 | 53.36700 | -2.28718 | 255 ft | 11 kts | 225° |
| 2026-04-23 12:51 | 53.36641 | -2.28771 | 255 ft | 9 kts | 206° |
| 2026-04-23 12:52 | 53.36590 | -2.28770 | 255 ft | 8 kts | 150° |
| 2026-04-23 12:52 | 53.36527 | -2.28670 | 255 ft | 17 kts | 135° |
| 2026-04-23 12:52 | 53.36445 | -2.28530 | 255 ft | 15 kts | 135° |
| 2026-04-23 12:52 | 53.36358 | -2.28472 | 255 ft | 13 kts | 169° |
| 2026-04-23 12:53 | 53.36288 | -2.28376 | 255 ft | 15 kts | 134° |
| 2026-04-23 12:53 | 53.36211 | -2.28245 | 255 ft | 15 kts | 134° |
| 2026-04-23 12:53 | 53.36135 | -2.28117 | 255 ft | 16 kts | 135° |
| 2026-04-23 12:53 | 53.36056 | -2.27995 | 255 ft | 16 kts | 139° |
| 2026-04-23 12:54 | 53.35973 | -2.27879 | 255 ft | 15 kts | 145° |
| 2026-04-23 12:54 | 53.35872 | -2.27853 | 254 ft | 15 kts | 185° |
| 2026-04-23 12:54 | 53.35752 | -2.27874 | 247 ft | 20 kts | 186° |
| 2026-04-23 12:54 | 53.35624 | -2.27910 | 240 ft | 17 kts | 210° |
| 2026-04-23 12:55 | 53.35540 | -2.28069 | 234 ft | 21 kts | 224° |
| 2026-04-23 12:55 | 53.35409 | -2.28162 | 236 ft | 21 kts | 187° |
| 2026-04-23 12:55 | 53.35265 | -2.28251 | 232 ft | 24 kts | 216° |
| 2026-04-23 12:55 | 53.35167 | -2.28434 | 228 ft | 22 kts | 231° |
| 2026-04-23 12:56 | 53.35069 | -2.28639 | 229 ft | 23 kts | 230° |
| 2026-04-23 12:56 | 53.34955 | -2.28846 | 227 ft | 25 kts | 226° |
| 2026-04-23 12:56 | 53.34854 | -2.29024 | 219 ft | 22 kts | 227° |
| 2026-04-23 12:56 | 53.34766 | -2.29196 | 214 ft | 16 kts | 231° |
| 2026-04-23 12:57 | 53.34672 | -2.29330 | 211 ft | 17 kts | 200° |
| 2026-04-23 12:57 | 53.34573 | -2.29321 | 213 ft | 13 kts | 157° |
| 2026-04-23 12:57 | 53.34557 | -2.29182 | 214 ft | 16 kts | 51° |
| 2026-04-23 12:57 | 53.34651 | -2.28992 | 222 ft | 39 kts | 52° |
| 2026-04-23 12:58 | 53.34983 | -2.28307 | 233 ft | 109 kts | 51° |
| 2026-04-23 12:58 | 53.35582 | -2.27069 | 275 ft | 160 kts | 51° |
| 2026-04-23 12:58 | 53.36275 | -2.25596 | 941 ft | 159 kts | 50° |
| 2026-04-23 12:58 | 53.36967 | -2.24155 | 1681 ft | 161 kts | 50° |
| 2026-04-23 12:59 | 53.37723 | -2.22609 | 2086 ft | 182 kts | 50° |
| 2026-04-23 12:59 | 53.38703 | -2.21080 | 2424 ft | 207 kts | 24° |
| 2026-04-23 12:59 | 53.40196 | -2.20906 | 2819 ft | 234 kts | 344° |
| 2026-04-23 12:59 | 53.41569 | -2.22557 | 3268 ft | 260 kts | 304° |
| 2026-04-23 13:00 | 53.42119 | -2.25466 | 4030 ft | 269 kts | 269° |
| 2026-04-23 13:00 | 53.41958 | -2.28611 | 4931 ft | 273 kts | 266° |
| 2026-04-23 13:00 | 53.42360 | -2.31711 | 5793 ft | 279 kts | 298° |
| 2026-04-23 13:00 | 53.43583 | -2.34258 | 6668 ft | 283 kts | 316° |
| 2026-04-23 13:01 | 53.44970 | -2.36631 | 7532 ft | 286 kts | 310° |
| 2026-04-23 13:01 | 53.46164 | -2.39308 | 8383 ft | 289 kts | 298° |
| 2026-04-23 13:01 | 53.46831 | -2.42481 | 9186 ft | 290 kts | 276° |
| 2026-04-23 13:01 | 53.46804 | -2.45858 | 10015 ft | 291 kts | 258° |
| 2026-04-23 13:02 | 53.46401 | -2.49192 | 10799 ft | 296 kts | 257° |
| 2026-04-23 13:02 | 53.45984 | -2.52712 | 11076 ft | 319 kts | 257° |
| 2026-04-23 13:02 | 53.45559 | -2.56447 | 11642 ft | 330 kts | 258° |
| 2026-04-23 13:02 | 53.44932 | -2.60153 | 12378 ft | 332 kts | 245° |
| 2026-04-23 13:03 | 53.43751 | -2.63537 | 13138 ft | 334 kts | 231° |
| 2026-04-23 13:03 | 53.42084 | -2.66280 | 13818 ft | 338 kts | 216° |
| 2026-04-23 13:03 | 53.40054 | -2.68178 | 14477 ft | 342 kts | 201° |
| 2026-04-23 13:03 | 53.37784 | -2.69590 | 15127 ft | 346 kts | 200° |
| 2026-04-23 13:04 | 53.35510 | -2.70997 | 15768 ft | 350 kts | 200° |
| 2026-04-23 13:04 | 53.33219 | -2.72419 | 16389 ft | 354 kts | 200° |
| 2026-04-23 13:04 | 53.30898 | -2.73864 | 16973 ft | 358 kts | 200° |
| 2026-04-23 13:04 | 53.28553 | -2.75323 | 17570 ft | 362 kts | 200° |
| 2026-04-23 13:05 | 53.26181 | -2.76802 | 18143 ft | 366 kts | 200° |
| 2026-04-23 13:05 | 53.23784 | -2.78294 | 18685 ft | 370 kts | 200° |
| 2026-04-23 13:05 | 53.21363 | -2.79800 | 19232 ft | 374 kts | 200° |
| 2026-04-23 13:05 | 53.18914 | -2.81326 | 19753 ft | 378 kts | 200° |
| 2026-04-23 13:06 | 53.13932 | -2.84408 | 20787 ft | 386 kts | 200° |
| 2026-04-23 13:06 | 53.11409 | -2.85968 | 21274 ft | 389 kts | 200° |
| 2026-04-23 13:06 | 53.08787 | -2.87176 | 21730 ft | 393 kts | 189° |
| 2026-04-23 13:07 | 53.06054 | -2.87573 | 22175 ft | 396 kts | 179° |
| 2026-04-23 13:07 | 53.03301 | -2.87133 | 22621 ft | 399 kts | 169° |
| 2026-04-23 13:07 | 53.00553 | -2.86367 | 23053 ft | 403 kts | 170° |
| 2026-04-23 13:07 | 52.97779 | -2.85596 | 23484 ft | 406 kts | 170° |
| 2026-04-23 13:08 | 52.94982 | -2.84824 | 23901 ft | 410 kts | 170° |
| 2026-04-23 13:08 | 52.92152 | -2.84053 | 24308 ft | 413 kts | 170° |
| 2026-04-23 13:08 | 52.89309 | -2.83288 | 24727 ft | 416 kts | 170° |
| 2026-04-23 13:08 | 52.86435 | -2.82518 | 25105 ft | 420 kts | 170° |
| 2026-04-23 13:09 | 52.83542 | -2.81744 | 25500 ft | 423 kts | 170° |
| 2026-04-23 13:09 | 52.80631 | -2.80965 | 25884 ft | 425 kts | 170° |
| 2026-04-23 13:09 | 52.77701 | -2.80178 | 26252 ft | 428 kts | 170° |
| 2026-04-23 13:09 | 52.74750 | -2.79384 | 26622 ft | 431 kts | 170° |
| 2026-04-23 13:10 | 52.71783 | -2.78589 | 26972 ft | 434 kts | 170° |
| 2026-04-23 13:10 | 52.68794 | -2.77791 | 27308 ft | 437 kts | 171° |
| 2026-04-23 13:10 | 52.65782 | -2.76991 | 27644 ft | 440 kts | 171° |
| 2026-04-23 13:10 | 52.62751 | -2.76203 | 27960 ft | 443 kts | 173° |
| 2026-04-23 13:11 | 52.59668 | -2.75925 | 28282 ft | 445 kts | 182° |
| 2026-04-23 13:11 | 52.56564 | -2.76185 | 28597 ft | 448 kts | 184° |
| 2026-04-23 13:11 | 52.53450 | -2.76462 | 28909 ft | 450 kts | 184° |
| 2026-04-23 13:11 | 52.50315 | -2.76740 | 29214 ft | 452 kts | 184° |
| 2026-04-23 13:12 | 52.47158 | -2.77012 | 29494 ft | 455 kts | 184° |
| 2026-04-23 13:12 | 52.43983 | -2.77283 | 29789 ft | 458 kts | 184° |
| 2026-04-23 13:12 | 52.40795 | -2.77555 | 30068 ft | 460 kts | 184° |
| 2026-04-23 13:12 | 52.37592 | -2.77827 | 30340 ft | 462 kts | 184° |
| 2026-04-23 13:13 | 52.34378 | -2.78102 | 30432 ft | 459 kts | 184° |
| 2026-04-23 13:13 | 52.31250 | -2.78364 | 30449 ft | 443 kts | 184° |
| 2026-04-23 13:13 | 52.28198 | -2.78627 | 30449 ft | 437 kts | 184° |
| 2026-04-23 13:14 | 52.22147 | -2.79156 | 30438 ft | 435 kts | 184° |
| 2026-04-23 13:14 | 52.16106 | -2.79681 | 30440 ft | 435 kts | 184° |
| 2026-04-23 13:15 | 52.10058 | -2.80194 | 30441 ft | 435 kts | 184° |
| 2026-04-23 13:15 | 52.04011 | -2.80705 | 30436 ft | 435 kts | 184° |
| 2026-04-23 13:16 | 51.97971 | -2.81214 | 30432 ft | 435 kts | 184° |
| 2026-04-23 13:16 | 51.91920 | -2.81731 | 30416 ft | 435 kts | 184° |
| 2026-04-23 13:17 | 51.85865 | -2.82246 | 30406 ft | 436 kts | 185° |
| 2026-04-23 13:17 | 51.79833 | -2.83215 | 30404 ft | 435 kts | 189° |
| 2026-04-23 13:18 | 51.73843 | -2.84645 | 30406 ft | 435 kts | 190° |
| 2026-04-23 13:18 | 51.67853 | -2.86067 | 30406 ft | 435 kts | 189° |
| 2026-04-23 13:19 | 51.61853 | -2.87373 | 30408 ft | 435 kts | 189° |
| 2026-04-23 13:19 | 51.55986 | -2.89472 | 30406 ft | 431 kts | 204° |
| 2026-04-23 13:20 | 51.50887 | -2.94313 | 30401 ft | 424 kts | 222° |
| 2026-04-23 13:20 | 51.47049 | -2.99217 | 30399 ft | 424 kts | 221° |
| 2026-04-23 13:21 | 51.42478 | -3.05012 | 30125 ft | 411 kts | 221° |
| 2026-04-23 13:21 | 51.40246 | -3.07822 | 29718 ft | 406 kts | 221° |
| 2026-04-23 13:21 | 51.38031 | -3.10609 | 29266 ft | 403 kts | 221° |
| 2026-04-23 13:21 | 51.35840 | -3.13367 | 28808 ft | 399 kts | 221° |
| 2026-04-23 13:22 | 51.33664 | -3.16114 | 28347 ft | 397 kts | 221° |
| 2026-04-23 13:22 | 51.31505 | -3.18838 | 27896 ft | 394 kts | 220° |
| 2026-04-23 13:22 | 51.29363 | -3.21537 | 27433 ft | 391 kts | 220° |
| 2026-04-23 13:22 | 51.27234 | -3.24218 | 26971 ft | 388 kts | 220° |
| 2026-04-23 13:23 | 51.25120 | -3.26877 | 26520 ft | 386 kts | 220° |
| 2026-04-23 13:23 | 51.23019 | -3.29510 | 26070 ft | 383 kts | 219° |
| 2026-04-23 13:23 | 51.20931 | -3.32121 | 25616 ft | 380 kts | 219° |
| 2026-04-23 13:23 | 51.18863 | -3.34719 | 25173 ft | 377 kts | 221° |
| 2026-04-23 13:24 | 51.17109 | -3.37774 | 24732 ft | 371 kts | 238° |
| 2026-04-23 13:24 | 51.15852 | -3.41329 | 24265 ft | 368 kts | 244° |
| 2026-04-23 13:24 | 51.14659 | -3.44923 | 23797 ft | 366 kts | 243° |
| 2026-04-23 13:24 | 51.13433 | -3.48461 | 23359 ft | 364 kts | 242° |
| 2026-04-23 13:25 | 51.12184 | -3.51955 | 22938 ft | 362 kts | 241° |
| 2026-04-23 13:25 | 51.10928 | -3.55418 | 22510 ft | 360 kts | 240° |
| 2026-04-23 13:25 | 51.09675 | -3.58854 | 22100 ft | 358 kts | 240° |
| 2026-04-23 13:25 | 51.08431 | -3.62272 | 21697 ft | 356 kts | 240° |
| 2026-04-23 13:26 | 51.07200 | -3.65665 | 21296 ft | 353 kts | 240° |
| 2026-04-23 13:26 | 51.05978 | -3.69042 | 20889 ft | 351 kts | 240° |
| 2026-04-23 13:26 | 51.04765 | -3.72390 | 20401 ft | 347 kts | 240° |
| 2026-04-23 13:26 | 51.03567 | -3.75699 | 19702 ft | 344 kts | 240° |
| 2026-04-23 13:27 | 51.02379 | -3.78976 | 19020 ft | 340 kts | 239° |
| 2026-04-23 13:27 | 51.01197 | -3.82228 | 18511 ft | 340 kts | 239° |
| 2026-04-23 13:27 | 51.00018 | -3.85462 | 18150 ft | 338 kts | 239° |
| 2026-04-23 13:27 | 50.98844 | -3.88680 | 17794 ft | 335 kts | 239° |
| 2026-04-23 13:28 | 50.97685 | -3.91854 | 17193 ft | 331 kts | 239° |
| 2026-04-23 13:28 | 50.96534 | -3.95008 | 16544 ft | 329 kts | 238° |
| 2026-04-23 13:28 | 50.95394 | -3.98136 | 15908 ft | 327 kts | 238° |
| 2026-04-23 13:28 | 50.94262 | -4.01237 | 15317 ft | 324 kts | 238° |
| 2026-04-23 13:29 | 50.93129 | -4.04328 | 14954 ft | 323 kts | 237° |
| 2026-04-23 13:29 | 50.92004 | -4.07386 | 14672 ft | 320 kts | 237° |
| 2026-04-23 13:29 | 50.90886 | -4.10418 | 14342 ft | 318 kts | 237° |
| 2026-04-23 13:29 | 50.89775 | -4.13436 | 14009 ft | 317 kts | 237° |
| 2026-04-23 13:30 | 50.88669 | -4.16442 | 13682 ft | 315 kts | 237° |
| 2026-04-23 13:30 | 50.87568 | -4.19439 | 13355 ft | 314 kts | 237° |
| 2026-04-23 13:30 | 50.86472 | -4.22421 | 13027 ft | 313 kts | 236° |
| 2026-04-23 13:30 | 50.85377 | -4.25383 | 12709 ft | 311 kts | 236° |
| 2026-04-23 13:31 | 50.84286 | -4.28325 | 12355 ft | 308 kts | 236° |
| 2026-04-23 13:31 | 50.83206 | -4.31234 | 11747 ft | 305 kts | 236° |
| 2026-04-23 13:31 | 50.82133 | -4.34122 | 11145 ft | 305 kts | 235° |
| 2026-04-23 13:31 | 50.81060 | -4.37009 | 10736 ft | 304 kts | 235° |
| 2026-04-23 13:32 | 50.79991 | -4.39884 | 10396 ft | 302 kts | 235° |
| 2026-04-23 13:32 | 50.78928 | -4.42740 | 10049 ft | 301 kts | 235° |
| 2026-04-23 13:32 | 50.77874 | -4.45578 | 9759 ft | 297 kts | 235° |
| 2026-04-23 13:32 | 50.76822 | -4.48408 | 9359 ft | 294 kts | 235° |
| 2026-04-23 13:33 | 50.75786 | -4.51189 | 8906 ft | 293 kts | 234° |
| 2026-04-23 13:33 | 50.74752 | -4.53960 | 8536 ft | 292 kts | 234° |
| 2026-04-23 13:33 | 50.73721 | -4.56717 | 8176 ft | 291 kts | 234° |
| 2026-04-23 13:33 | 50.72694 | -4.59459 | 7801 ft | 290 kts | 234° |
| 2026-04-23 13:34 | 50.71671 | -4.62189 | 7445 ft | 288 kts | 234° |
| 2026-04-23 13:34 | 50.70657 | -4.64890 | 7051 ft | 287 kts | 234° |
| 2026-04-23 13:34 | 50.69642 | -4.67582 | 6701 ft | 284 kts | 234° |
| 2026-04-23 13:34 | 50.68637 | -4.70250 | 6287 ft | 282 kts | 234° |
| 2026-04-23 13:35 | 50.67640 | -4.72896 | 5839 ft | 280 kts | 234° |
| 2026-04-23 13:35 | 50.66651 | -4.75526 | 5437 ft | 279 kts | 234° |
| 2026-04-23 13:35 | 50.65662 | -4.78151 | 5015 ft | 279 kts | 233° |
| 2026-04-23 13:35 | 50.64670 | -4.80776 | 4578 ft | 279 kts | 233° |
| 2026-04-23 13:36 | 50.63679 | -4.83394 | 4154 ft | 278 kts | 233° |
| 2026-04-23 13:36 | 50.62693 | -4.85999 | 3735 ft | 276 kts | 234° |
| 2026-04-23 13:36 | 50.61721 | -4.88573 | 3503 ft | 268 kts | 234° |
| 2026-04-23 13:36 | 50.60794 | -4.91037 | 3376 ft | 256 kts | 233° |
| 2026-04-23 13:37 | 50.59904 | -4.93396 | 3260 ft | 246 kts | 233° |
| 2026-04-23 13:37 | 50.59045 | -4.95671 | 3161 ft | 239 kts | 233° |
| 2026-04-23 13:37 | 50.58212 | -4.97876 | 3046 ft | 231 kts | 233° |
| 2026-04-23 13:37 | 50.57399 | -5.00019 | 2886 ft | 226 kts | 233° |
| 2026-04-23 13:38 | 50.56600 | -5.02104 | 2609 ft | 221 kts | 233° |
| 2026-04-23 13:38 | 50.55811 | -5.04158 | 2324 ft | 215 kts | 233° |
| 2026-04-23 13:38 | 50.55055 | -5.06139 | 2074 ft | 210 kts | 232° |
| 2026-04-23 13:38 | 50.54300 | -5.08107 | 1995 ft | 210 kts | 233° |
| 2026-04-23 13:39 | 50.53546 | -5.10067 | 2007 ft | 211 kts | 233° |
| 2026-04-23 13:39 | 50.52729 | -5.11965 | 2007 ft | 205 kts | 218° |
| 2026-04-23 13:39 | 50.51572 | -5.13078 | 2009 ft | 187 kts | 188° |
| 2026-04-23 13:39 | 50.50338 | -5.13215 | 2004 ft | 173 kts | 163° |
| 2026-04-23 13:40 | 50.49257 | -5.12559 | 1923 ft | 164 kts | 141° |
| 2026-04-23 13:40 | 50.48491 | -5.11303 | 1772 ft | 159 kts | 119° |
| 2026-04-23 13:40 | 50.47935 | -5.09821 | 1578 ft | 152 kts | 118° |
| 2026-04-23 13:40 | 50.47435 | -5.08490 | 1400 ft | 133 kts | 118° |
| 2026-04-23 13:41 | 50.46981 | -5.07275 | 1226 ft | 126 kts | 119° |
| 2026-04-23 13:41 | 50.46545 | -5.06108 | 1059 ft | 122 kts | 118° |
| 2026-04-23 13:41 | 50.46117 | -5.04965 | 907 ft | 121 kts | 118° |
| 2026-04-23 13:41 | 50.45688 | -5.03825 | 737 ft | 122 kts | 119° |
| 2026-04-23 13:42 | 50.45254 | -5.02680 | 582 ft | 123 kts | 119° |
| 2026-04-23 13:42 | 50.44818 | -5.01510 | 435 ft | 126 kts | 119° |
| 2026-04-23 13:42 | 50.44377 | -5.00339 | 353 ft | 119 kts | 120° |
| 2026-04-23 13:42 | 50.44020 | -4.99387 | 361 ft | 78 kts | 120° |
| 2026-04-23 13:43 | 50.43822 | -4.98859 | 371 ft | 43 kts | 120° |
| 2026-04-23 13:43 | 50.43690 | -4.98497 | 378 ft | 34 kts | 120° |
| 2026-04-23 13:43 | 50.43585 | -4.98220 | 388 ft | 26 kts | 120° |
| 2026-04-23 13:43 | 50.43496 | -4.97992 | 394 ft | 24 kts | 120° |
| 2026-04-23 13:44 | 50.43516 | -4.97858 | 393 ft | 16 kts | 13° |
| 2026-04-23 13:44 | 50.43640 | -4.97894 | 390 ft | 22 kts | 329° |
| 2026-04-23 13:44 | 50.43734 | -4.98083 | 385 ft | 22 kts | 297° |
| 2026-04-23 13:44 | 50.43812 | -4.98298 | 380 ft | 23 kts | 302° |
| 2026-04-23 13:45 | 50.43868 | -4.98439 | 376 ft | 23 kts | 301° |
| 2026-04-23 13:45 | 50.43975 | -4.98738 | 371 ft | 24 kts | 300° |
| 2026-04-23 13:45 | 50.44064 | -4.98963 | 367 ft | 25 kts | 301° |
| 2026-04-23 13:45 | 50.44156 | -4.99205 | 361 ft | 25 kts | 300° |
| 2026-04-23 13:46 | 50.44247 | -4.99446 | 357 ft | 24 kts | 301° |
| 2026-04-23 13:46 | 50.44333 | -4.99676 | 345 ft | 25 kts | 301° |
| 2026-04-23 13:46 | 50.44411 | -4.99881 | 340 ft | 19 kts | 301° |
| 2026-04-23 13:46 | 50.44477 | -5.00059 | 335 ft | 19 kts | 300° |
| 2026-04-23 13:47 | 50.44544 | -5.00238 | 327 ft | 19 kts | 300° |
| 2026-04-23 13:47 | 50.44592 | -5.00371 | 328 ft | 12 kts | 298° |
| 2026-04-23 13:47 | 50.44629 | -5.00455 | 325 ft | 5 kts | 343° |
| 2026-04-23 13:47 | 50.44644 | -5.00431 | 326 ft | 1 kts | 76° |
| 2026-04-23 13:48 | 50.44646 | -5.00418 | 326 ft | 2 kts | 73° |
| 2026-04-23 13:48 | 50.44648 | -5.00413 | 326 ft | 0 kts | 73° |
| 2026-04-23 13:48 | 50.44649 | -5.00407 | 325 ft | 1 kts | 74° |
| 2026-04-23 13:48 | 50.44651 | -5.00393 | 324 ft | 2 kts | 74° |
| 2026-04-23 13:49 | 50.44653 | -5.00381 | 323 ft | 1 kts | 74° |